Castle Valley, Utah
Current Conditions -  °F | °C
As of 5:53 AM on Friday 24 Oct 2014 (Local Time) from KCNY Reporting Station
Clear Clear  
Wind Chill: 45°   Ceiling: Unl
Heat Index: 45°   Visibility: 10mi
Dew Point: 32°   Wind: 3mph
Humidity: 60%   Direction: 240°WSW
Pressure: 30.21"   Gusts: NA
Location:  38.6903°N, 109.256°W
Report Text: KCNY 241153Z AUTO 24003KT 10SM CLR 07/00 A3021 RMK AO2 SLP198 T00720000 10106 20067 53006
Loading
Personal Weather Stations






























Interactive Weather Map
Tropical Storm Tracking
New forecast layout! Learn more

10-Day Weather Forecast

Advertisements
Track Severe Weather on mobile